Canastota, New York
Current Conditions -  °F | °C
As of 10:54 AM on Saturday 25 Oct 2014 (Local Time) from KSYR Reporting Station
Broken Clouds Broken Clouds  
Wind Chill: 58°   Ceiling: 6000
Heat Index: 58°   Visibility: 10mi
Dew Point: 48°   Wind: 8mph
Humidity: 70%   Direction: 220°SW
Pressure: 29.76"   Gusts: NA
Location:  43.08°N, 75.75°W
Report Text: KSYR 251454Z 22007KT 10SM BKN060 14/09 A2976 RMK AO2 SLP075 T01440089 58023
Loading
Personal Weather Stations






























Interactive Weather Map
Tropical Storm Tracking
New forecast layout! Learn more

10-Day Weather Forecast

Advertisements
Track Severe Weather on mobile